createdAt,value
2023-01-29T10:08:40.479Z,87
2023-01-29T10:13:46.603Z,86.5
2023-01-29T10:18:52.623Z,86
2023-01-29T10:23:58.721Z,85.5
2023-01-29T10:29:04.990Z,86
2023-01-29T10:34:11.166Z,85
2023-01-29T10:39:17.150Z,85
2023-01-29T10:44:23.197Z,85.5
2023-01-29T10:49:29.433Z,86.5
2023-01-29T10:54:34.542Z,87
2023-01-29T10:59:40.706Z,86
2023-01-29T11:04:46.916Z,86
2023-01-29T11:09:53.085Z,86.5
2023-01-29T11:14:59.135Z,85.5
2023-01-29T11:20:05.053Z,86
2023-01-29T11:25:11.167Z,86
2023-01-29T11:30:17.271Z,86.5
2023-01-29T11:35:23.600Z,86
2023-01-29T11:40:29.675Z,87.5
2023-01-29T11:45:35.766Z,86.5
2023-01-29T11:50:40.913Z,87
2023-01-29T11:55:45.989Z,87.5
2023-01-29T12:00:52.208Z,87
2023-01-29T12:05:58.127Z,87
2023-01-29T12:11:04.300Z,87.5
2023-01-29T12:16:10.536Z,87.5
2023-01-29T12:21:16.645Z,87.5
2023-01-29T12:26:22.680Z,88
2023-01-29T12:31:28.755Z,88.5
2023-01-29T12:36:34.855Z,88.5
2023-01-29T12:41:40.935Z,89
2023-01-29T12:46:47.053Z,89.5
2023-01-29T12:51:53.243Z,89.5
2023-01-29T12:56:59.285Z,89
2023-01-29T13:02:04.496Z,89.5
2023-01-29T13:07:10.573Z,90
2023-01-29T13:12:16.672Z,91
2023-01-29T13:17:22.824Z,94
2023-01-29T13:22:28.985Z,95.5
2023-01-29T13:27:35.212Z,97.5
2023-01-29T13:32:41.294Z,98
2023-01-29T13:37:46.521Z,98.5
2023-01-29T13:42:51.548Z,99.5
2023-01-29T13:53:02.873Z,99.5
2023-01-29T13:58:07.779Z,99.5
2023-01-29T14:03:13.040Z,99.5
2023-01-29T14:08:19.194Z,99.5
2023-01-29T14:13:25.263Z,99.5
2023-01-29T14:18:31.384Z,99.5
2023-01-29T14:23:37.536Z,99.5
2023-01-29T14:28:43.642Z,99.5
2023-01-29T14:33:49.783Z,99.5
2023-01-29T14:38:55.893Z,99.5
2023-01-29T14:44:01.998Z,99.5
2023-01-29T14:49:08.068Z,99.5
2023-01-29T14:54:14.213Z,99.5
2023-01-29T14:59:20.361Z,99.5
2023-01-29T15:04:26.472Z,99.5
2023-01-29T15:09:31.434Z,99.5
2023-01-29T15:14:37.713Z,99.5
2023-01-29T15:19:43.783Z,99.5
2023-01-29T15:24:49.848Z,99.5
2023-01-29T15:29:55.901Z,99.5
2023-01-29T15:35:02.066Z,99.5
2023-01-29T15:40:08.361Z,99.5
2023-01-29T15:45:13.417Z,99.5
2023-01-29T15:50:18.539Z,99.5
2023-01-29T15:55:23.699Z,99.5
2023-01-29T16:00:28.756Z,99.5
2023-01-29T16:05:34.858Z,99.5
2023-01-29T16:10:41.103Z,99.5
2023-01-29T16:15:47.232Z,99.5
2023-01-29T16:20:53.177Z,99.5
2023-01-29T16:25:59.450Z,99.5
2023-01-29T16:31:05.519Z,99.5
2023-01-29T16:36:11.678Z,99.5
